sensor_id;sensor_type;location;lat;lon;timestamp;P1;durP1;ratioP1;P2;durP2;ratioP2
49834;SDS011;35729;52.090;13.162;2023-03-05T00:01:48;14.00;;;3.53;;
49834;SDS011;35729;52.090;13.162;2023-03-05T00:04:19;13.88;;;2.50;;
49834;SDS011;35729;52.090;13.162;2023-03-05T00:06:48;14.95;;;2.70;;
49834;SDS011;35729;52.090;13.162;2023-03-05T00:09:16;11.20;;;2.78;;
49834;SDS011;35729;52.090;13.162;2023-03-05T00:11:45;17.98;;;2.55;;
49834;SDS011;35729;52.090;13.162;2023-03-05T00:14:13;13.30;;;2.40;;
49834;SDS011;35729;52.090;13.162;2023-03-05T00:16:42;11.77;;;2.10;;
49834;SDS011;35729;52.090;13.162;2023-03-05T00:19:10;9.98;;;2.40;;
49834;SDS011;35729;52.090;13.162;2023-03-05T00:21:41;16.05;;;2.45;;
49834;SDS011;35729;52.090;13.162;2023-03-05T00:24:11;15.05;;;2.60;;
49834;SDS011;35729;52.090;13.162;2023-03-05T00:26:41;13.68;;;2.85;;
49834;SDS011;35729;52.090;13.162;2023-03-05T00:29:10;15.60;;;2.80;;
49834;SDS011;35729;52.090;13.162;2023-03-05T00:31:42;14.45;;;3.25;;
49834;SDS011;35729;52.090;13.162;2023-03-05T00:34:12;11.35;;;2.72;;
49834;SDS011;35729;52.090;13.162;2023-03-05T00:36:45;18.27;;;2.28;;
49834;SDS011;35729;52.090;13.162;2023-03-05T00:39:15;14.57;;;2.45;;
49834;SDS011;35729;52.090;13.162;2023-03-05T00:41:44;10.10;;;2.33;;
49834;SDS011;35729;52.090;13.162;2023-03-05T00:44:13;14.00;;;2.20;;
49834;SDS011;35729;52.090;13.162;2023-03-05T00:46:41;13.35;;;2.00;;
49834;SDS011;35729;52.090;13.162;2023-03-05T00:49:10;13.20;;;2.47;;
49834;SDS011;35729;52.090;13.162;2023-03-05T00:51:39;11.88;;;2.35;;
49834;SDS011;35729;52.090;13.162;2023-03-05T00:54:10;13.52;;;2.60;;
49834;SDS011;35729;52.090;13.162;2023-03-05T00:56:39;14.07;;;2.60;;
49834;SDS011;35729;52.090;13.162;2023-03-05T00:59:07;12.35;;;2.17;;
49834;SDS011;35729;52.090;13.162;2023-03-05T01:01:36;9.75;;;2.40;;
49834;SDS011;35729;52.090;13.162;2023-03-05T01:04:04;9.55;;;1.92;;
49834;SDS011;35729;52.090;13.162;2023-03-05T01:06:33;8.68;;;2.13;;
49834;SDS011;35729;52.090;13.162;2023-03-05T01:09:03;12.60;;;2.85;;
49834;SDS011;35729;52.090;13.162;2023-03-05T01:11:34;12.95;;;2.05;;
49834;SDS011;35729;52.090;13.162;2023-03-05T01:14:02;18.00;;;2.40;;
49834;SDS011;35729;52.090;13.162;2023-03-05T01:16:31;10.35;;;2.45;;
49834;SDS011;35729;52.090;13.162;2023-03-05T01:18:59;10.55;;;1.75;;
49834;SDS011;35729;52.090;13.162;2023-03-05T01:21:28;9.48;;;2.25;;
49834;SDS011;35729;52.090;13.162;2023-03-05T01:23:56;8.93;;;2.15;;
49834;SDS011;35729;52.090;13.162;2023-03-05T01:26:25;18.45;;;2.80;;
49834;SDS011;35729;52.090;13.162;2023-03-05T01:28:56;11.68;;;2.15;;
49834;SDS011;35729;52.090;13.162;2023-03-05T01:31:25;8.43;;;1.60;;
49834;SDS011;35729;52.090;13.162;2023-03-05T01:33:54;9.43;;;1.80;;
49834;SDS011;35729;52.090;13.162;2023-03-05T01:36:24;6.80;;;1.42;;
49834;SDS011;35729;52.090;13.162;2023-03-05T01:38:52;9.60;;;2.03;;
49834;SDS011;35729;52.090;13.162;2023-03-05T01:41:21;12.32;;;2.15;;
49834;SDS011;35729;52.090;13.162;2023-03-05T01:43:50;9.63;;;1.52;;
49834;SDS011;35729;52.090;13.162;2023-03-05T01:46:29;10.25;;;1.50;;
49834;SDS011;35729;52.090;13.162;2023-03-05T01:49:03;7.97;;;2.00;;
49834;SDS011;35729;52.090;13.162;2023-03-05T01:51:36;14.77;;;2.72;;
49834;SDS011;35729;52.090;13.162;2023-03-05T01:54:07;4.35;;;1.48;;
49834;SDS011;35729;52.090;13.162;2023-03-05T01:56:37;10.32;;;1.92;;
49834;SDS011;35729;52.090;13.162;2023-03-05T01:59:08;7.38;;;1.48;;
49834;SDS011;35729;52.090;13.162;2023-03-05T02:01:41;10.25;;;1.73;;
49834;SDS011;35729;52.090;13.162;2023-03-05T02:04:14;12.15;;;1.83;;
49834;SDS011;35729;52.090;13.162;2023-03-05T02:06:45;7.63;;;1.67;;
49834;SDS011;35729;52.090;13.162;2023-03-05T02:09:14;8.70;;;1.95;;
49834;SDS011;35729;52.090;13.162;2023-03-05T02:11:43;9.00;;;1.92;;
49834;SDS011;35729;52.090;13.162;2023-03-05T02:14:17;9.43;;;1.70;;
49834;SDS011;35729;52.090;13.162;2023-03-05T02:16:51;8.18;;;1.52;;
49834;SDS011;35729;52.090;13.162;2023-03-05T02:19:19;6.13;;;1.42;;
49834;SDS011;35729;52.090;13.162;2023-03-05T02:21:50;10.73;;;1.63;;
49834;SDS011;35729;52.090;13.162;2023-03-05T02:24:30;9.00;;;1.75;;
49834;SDS011;35729;52.090;13.162;2023-03-05T02:27:02;12.20;;;1.67;;
49834;SDS011;35729;52.090;13.162;2023-03-05T02:29:31;11.65;;;1.90;;
49834;SDS011;35729;52.090;13.162;2023-03-05T02:32:03;5.00;;;1.33;;
49834;SDS011;35729;52.090;13.162;2023-03-05T02:34:32;8.18;;;1.77;;
49834;SDS011;35729;52.090;13.162;2023-03-05T02:37:03;8.43;;;1.52;;
49834;SDS011;35729;52.090;13.162;2023-03-05T02:39:33;7.32;;;1.40;;
49834;SDS011;35729;52.090;13.162;2023-03-05T02:42:02;8.20;;;1.50;;
49834;SDS011;35729;52.090;13.162;2023-03-05T02:44:30;7.43;;;1.48;;
49834;SDS011;35729;52.090;13.162;2023-03-05T02:46:59;5.97;;;1.35;;
49834;SDS011;35729;52.090;13.162;2023-03-05T02:49:28;6.88;;;1.35;;
49834;SDS011;35729;52.090;13.162;2023-03-05T02:51:57;7.90;;;1.42;;
49834;SDS011;35729;52.090;13.162;2023-03-05T02:54:28;6.47;;;1.52;;
49834;SDS011;35729;52.090;13.162;2023-03-05T02:56:56;5.63;;;1.50;;
49834;SDS011;35729;52.090;13.162;2023-03-05T02:59:31;7.75;;;1.30;;
49834;SDS011;35729;52.090;13.162;2023-03-05T03:02:00;4.75;;;1.42;;
49834;SDS011;35729;52.090;13.162;2023-03-05T03:04:28;5.63;;;1.20;;
49834;SDS011;35729;52.090;13.162;2023-03-05T03:06:57;10.48;;;2.03;;
49834;SDS011;35729;52.090;13.162;2023-03-05T03:09:28;5.72;;;1.75;;
49834;SDS011;35729;52.090;13.162;2023-03-05T03:11:56;4.32;;;1.08;;
49834;SDS011;35729;52.090;13.162;2023-03-05T03:14:25;11.60;;;1.80;;
49834;SDS011;35729;52.090;13.162;2023-03-05T03:16:54;3.97;;;1.10;;
49834;SDS011;35729;52.090;13.162;2023-03-05T03:19:23;4.95;;;1.25;;
49834;SDS011;35729;52.090;13.162;2023-03-05T03:21:51;7.47;;;1.92;;
49834;SDS011;35729;52.090;13.162;2023-03-05T03:24:20;5.22;;;1.17;;
49834;SDS011;35729;52.090;13.162;2023-03-05T03:26:51;6.30;;;1.85;;
49834;SDS011;35729;52.090;13.162;2023-03-05T03:29:19;9.75;;;1.35;;
49834;SDS011;35729;52.090;13.162;2023-03-05T03:31:48;6.38;;;1.65;;
49834;SDS011;35729;52.090;13.162;2023-03-05T03:34:17;5.85;;;1.35;;
49834;SDS011;35729;52.090;13.162;2023-03-05T03:36:46;6.50;;;1.10;;
49834;SDS011;35729;52.090;13.162;2023-03-05T03:39:17;4.85;;;1.25;;
49834;SDS011;35729;52.090;13.162;2023-03-05T03:41:47;7.38;;;1.55;;
49834;SDS011;35729;52.090;13.162;2023-03-05T03:44:20;7.95;;;1.50;;
49834;SDS011;35729;52.090;13.162;2023-03-05T03:46:49;7.93;;;1.77;;
49834;SDS011;35729;52.090;13.162;2023-03-05T03:49:19;5.88;;;2.03;;
49834;SDS011;35729;52.090;13.162;2023-03-05T03:51:48;6.75;;;2.47;;
49834;SDS011;35729;52.090;13.162;2023-03-05T03:54:18;7.85;;;1.20;;
49834;SDS011;35729;52.090;13.162;2023-03-05T03:56:48;8.32;;;1.50;;
49834;SDS011;35729;52.090;13.162;2023-03-05T03:59:17;7.82;;;1.50;;
49834;SDS011;35729;52.090;13.162;2023-03-05T04:01:48;6.15;;;1.20;;
49834;SDS011;35729;52.090;13.162;2023-03-05T04:04:16;10.68;;;2.13;;
49834;SDS011;35729;52.090;13.162;2023-03-05T04:06:45;6.05;;;1.33;;
49834;SDS011;35729;52.090;13.162;2023-03-05T04:09:13;6.47;;;1.60;;
49834;SDS011;35729;52.090;13.162;2023-03-05T04:11:42;7.15;;;1.55;;
49834;SDS011;35729;52.090;13.162;2023-03-05T04:14:11;9.75;;;1.90;;
49834;SDS011;35729;52.090;13.162;2023-03-05T04:16:42;6.03;;;1.52;;
49834;SDS011;35729;52.090;13.162;2023-03-05T04:19:10;3.90;;;1.60;;
49834;SDS011;35729;52.090;13.162;2023-03-05T04:21:39;4.68;;;1.10;;
49834;SDS011;35729;52.090;13.162;2023-03-05T04:24:07;6.93;;;1.30;;
49834;SDS011;35729;52.090;13.162;2023-03-05T04:26:36;6.25;;;1.17;;
49834;SDS011;35729;52.090;13.162;2023-03-05T04:29:04;4.22;;;1.35;;
49834;SDS011;35729;52.090;13.162;2023-03-05T04:31:33;4.93;;;1.33;;
49834;SDS011;35729;52.090;13.162;2023-03-05T04:34:04;5.45;;;1.35;;
49834;SDS011;35729;52.090;13.162;2023-03-05T04:36:32;6.22;;;1.50;;
49834;SDS011;35729;52.090;13.162;2023-03-05T04:39:01;6.22;;;1.45;;
49834;SDS011;35729;52.090;13.162;2023-03-05T04:41:30;5.55;;;1.42;;
49834;SDS011;35729;52.090;13.162;2023-03-05T04:43:58;6.70;;;1.20;;
49834;SDS011;35729;52.090;13.162;2023-03-05T04:46:27;4.03;;;1.35;;
49834;SDS011;35729;52.090;13.162;2023-03-05T04:48:55;6.68;;;1.40;;
49834;SDS011;35729;52.090;13.162;2023-03-05T04:51:27;7.82;;;1.42;;
49834;SDS011;35729;52.090;13.162;2023-03-05T04:53:55;4.72;;;1.50;;
49834;SDS011;35729;52.090;13.162;2023-03-05T04:56:24;11.70;;;1.60;;
49834;SDS011;35729;52.090;13.162;2023-03-05T04:58:52;6.53;;;1.50;;
49834;SDS011;35729;52.090;13.162;2023-03-05T05:01:21;6.78;;;1.90;;
49834;SDS011;35729;52.090;13.162;2023-03-05T05:03:49;7.85;;;1.52;;
49834;SDS011;35729;52.090;13.162;2023-03-05T05:06:18;9.55;;;2.10;;
49834;SDS011;35729;52.090;13.162;2023-03-05T05:08:49;6.38;;;1.35;;
49834;SDS011;35729;52.090;13.162;2023-03-05T05:11:17;8.40;;;2.92;;
49834;SDS011;35729;52.090;13.162;2023-03-05T05:13:46;14.00;;;3.90;;
49834;SDS011;35729;52.090;13.162;2023-03-05T05:16:14;10.32;;;3.10;;
49834;SDS011;35729;52.090;13.162;2023-03-05T05:18:43;10.05;;;3.10;;
49834;SDS011;35729;52.090;13.162;2023-03-05T05:21:24;9.32;;;2.75;;
49834;SDS011;35729;52.090;13.162;2023-03-05T05:23:55;7.78;;;2.55;;
49834;SDS011;35729;52.090;13.162;2023-03-05T05:26:24;7.78;;;2.38;;
49834;SDS011;35729;52.090;13.162;2023-03-05T05:28:52;8.48;;;2.72;;
49834;SDS011;35729;52.090;13.162;2023-03-05T05:31:21;8.10;;;2.20;;
49834;SDS011;35729;52.090;13.162;2023-03-05T05:33:49;12.77;;;2.42;;
49834;SDS011;35729;52.090;13.162;2023-03-05T05:36:18;12.63;;;3.22;;
49834;SDS011;35729;52.090;13.162;2023-03-05T05:38:46;12.75;;;3.40;;
49834;SDS011;35729;52.090;13.162;2023-03-05T05:41:18;7.90;;;2.67;;
49834;SDS011;35729;52.090;13.162;2023-03-05T05:43:47;5.75;;;2.50;;
49834;SDS011;35729;52.090;13.162;2023-03-05T05:46:16;6.93;;;2.40;;
49834;SDS011;35729;52.090;13.162;2023-03-05T05:48:46;7.35;;;2.75;;
49834;SDS011;35729;52.090;13.162;2023-03-05T05:51:16;8.15;;;2.65;;
49834;SDS011;35729;52.090;13.162;2023-03-05T05:53:46;7.38;;;2.88;;
49834;SDS011;35729;52.090;13.162;2023-03-05T05:56:15;7.00;;;2.60;;
49834;SDS011;35729;52.090;13.162;2023-03-05T05:58:47;8.23;;;2.40;;
49834;SDS011;35729;52.090;13.162;2023-03-05T06:01:17;8.70;;;2.20;;
49834;SDS011;35729;52.090;13.162;2023-03-05T06:03:47;6.30;;;1.90;;
49834;SDS011;35729;52.090;13.162;2023-03-05T06:06:17;5.22;;;1.95;;
49834;SDS011;35729;52.090;13.162;2023-03-05T06:08:47;5.72;;;1.60;;
49834;SDS011;35729;52.090;13.162;2023-03-05T06:11:19;4.65;;;1.40;;
49834;SDS011;35729;52.090;13.162;2023-03-05T06:13:48;5.53;;;1.98;;
49834;SDS011;35729;52.090;13.162;2023-03-05T06:16:18;4.43;;;1.40;;
49834;SDS011;35729;52.090;13.162;2023-03-05T06:19:09;3.60;;;1.52;;
49834;SDS011;35729;52.090;13.162;2023-03-05T06:21:46;5.70;;;1.88;;
49834;SDS011;35729;52.090;13.162;2023-03-05T06:24:14;3.28;;;1.20;;
49834;SDS011;35729;52.090;13.162;2023-03-05T06:26:43;7.72;;;2.03;;
49834;SDS011;35729;52.090;13.162;2023-03-05T06:29:12;5.32;;;1.30;;
49834;SDS011;35729;52.090;13.162;2023-03-05T06:31:41;4.93;;;1.40;;
49834;SDS011;35729;52.090;13.162;2023-03-05T06:34:12;5.03;;;1.70;;
49834;SDS011;35729;52.090;13.162;2023-03-05T06:36:40;2.92;;;1.15;;
49834;SDS011;35729;52.090;13.162;2023-03-05T06:39:09;3.53;;;1.20;;
49834;SDS011;35729;52.090;13.162;2023-03-05T06:41:38;5.57;;;1.45;;
49834;SDS011;35729;52.090;13.162;2023-03-05T06:44:06;3.83;;;1.70;;
49834;SDS011;35729;52.090;13.162;2023-03-05T06:46:35;5.40;;;1.52;;
49834;SDS011;35729;52.090;13.162;2023-03-05T06:49:04;2.67;;;1.23;;
49834;SDS011;35729;52.090;13.162;2023-03-05T06:51:36;2.75;;;1.50;;
49834;SDS011;35729;52.090;13.162;2023-03-05T06:54:07;1.77;;;1.02;;
49834;SDS011;35729;52.090;13.162;2023-03-05T06:56:37;2.95;;;1.33;;
49834;SDS011;35729;52.090;13.162;2023-03-05T06:59:06;3.08;;;1.38;;
49834;SDS011;35729;52.090;13.162;2023-03-05T07:01:35;3.90;;;1.55;;
49834;SDS011;35729;52.090;13.162;2023-03-05T07:04:04;2.38;;;0.90;;
49834;SDS011;35729;52.090;13.162;2023-03-05T07:06:33;2.63;;;1.23;;
49834;SDS011;35729;52.090;13.162;2023-03-05T07:09:06;2.30;;;1.33;;
49834;SDS011;35729;52.090;13.162;2023-03-05T07:11:36;3.10;;;1.10;;
49834;SDS011;35729;52.090;13.162;2023-03-05T07:14:05;5.70;;;2.20;;
49834;SDS011;35729;52.090;13.162;2023-03-05T07:16:34;5.78;;;2.55;;
49834;SDS011;35729;52.090;13.162;2023-03-05T07:19:03;7.55;;;2.78;;
49834;SDS011;35729;52.090;13.162;2023-03-05T07:21:37;4.40;;;1.70;;
49834;SDS011;35729;52.090;13.162;2023-03-05T07:24:06;5.05;;;1.55;;
49834;SDS011;35729;52.090;13.162;2023-03-05T07:26:35;3.03;;;1.20;;
49834;SDS011;35729;52.090;13.162;2023-03-05T07:29:04;3.00;;;1.38;;
49834;SDS011;35729;52.090;13.162;2023-03-05T07:31:32;5.15;;;1.42;;
49834;SDS011;35729;52.090;13.162;2023-03-05T07:34:01;5.50;;;1.77;;
49834;SDS011;35729;52.090;13.162;2023-03-05T07:36:30;5.32;;;1.50;;
49834;SDS011;35729;52.090;13.162;2023-03-05T07:39:02;5.03;;;2.05;;
49834;SDS011;35729;52.090;13.162;2023-03-05T07:41:31;3.45;;;1.42;;
49834;SDS011;35729;52.090;13.162;2023-03-05T07:43:59;5.03;;;2.05;;
49834;SDS011;35729;52.090;13.162;2023-03-05T07:46:28;8.70;;;2.92;;
49834;SDS011;35729;52.090;13.162;2023-03-05T07:48:59;5.25;;;1.40;;
49834;SDS011;35729;52.090;13.162;2023-03-05T07:51:27;3.47;;;1.05;;
49834;SDS011;35729;52.090;13.162;2023-03-05T07:53:56;3.28;;;1.38;;
49834;SDS011;35729;52.090;13.162;2023-03-05T07:56:29;2.25;;;1.05;;
49834;SDS011;35729;52.090;13.162;2023-03-05T07:58:59;4.45;;;2.80;;
49834;SDS011;35729;52.090;13.162;2023-03-05T08:01:30;3.00;;;2.33;;
49834;SDS011;35729;52.090;13.162;2023-03-05T08:04:00;7.95;;;1.70;;
49834;SDS011;35729;52.090;13.162;2023-03-05T08:06:29;4.20;;;1.17;;
49834;SDS011;35729;52.090;13.162;2023-03-05T08:08:57;4.38;;;1.30;;
49834;SDS011;35729;52.090;13.162;2023-03-05T08:11:29;3.22;;;1.33;;
49834;SDS011;35729;52.090;13.162;2023-03-05T08:13:57;9.38;;;3.20;;
49834;SDS011;35729;52.090;13.162;2023-03-05T08:16:26;4.15;;;2.30;;
49834;SDS011;35729;52.090;13.162;2023-03-05T08:18:55;3.40;;;1.55;;
49834;SDS011;35729;52.090;13.162;2023-03-05T08:21:25;5.60;;;1.55;;
49834;SDS011;35729;52.090;13.162;2023-03-05T08:23:57;3.03;;;1.30;;
49834;SDS011;35729;52.090;13.162;2023-03-05T08:26:30;7.60;;;3.03;;
49834;SDS011;35729;52.090;13.162;2023-03-05T08:29:02;4.63;;;1.42;;
49834;SDS011;35729;52.090;13.162;2023-03-05T08:31:31;5.13;;;1.58;;
49834;SDS011;35729;52.090;13.162;2023-03-05T08:34:00;3.88;;;2.00;;
49834;SDS011;35729;52.090;13.162;2023-03-05T08:36:30;2.33;;;1.13;;
49834;SDS011;35729;52.090;13.162;2023-03-05T08:38:58;3.53;;;1.08;;
49834;SDS011;35729;52.090;13.162;2023-03-05T08:41:30;3.13;;;1.30;;
49834;SDS011;35729;52.090;13.162;2023-03-05T08:43:58;2.88;;;1.35;;
49834;SDS011;35729;52.090;13.162;2023-03-05T08:46:27;3.85;;;1.30;;
49834;SDS011;35729;52.090;13.162;2023-03-05T08:48:55;4.75;;;1.50;;
49834;SDS011;35729;52.090;13.162;2023-03-05T08:51:24;5.28;;;1.52;;
49834;SDS011;35729;52.090;13.162;2023-03-05T08:53:53;5.65;;;1.65;;
49834;SDS011;35729;52.090;13.162;2023-03-05T08:56:23;3.95;;;1.23;;
49834;SDS011;35729;52.090;13.162;2023-03-05T08:58:55;6.22;;;1.23;;
49834;SDS011;35729;52.090;13.162;2023-03-05T09:01:23;4.10;;;1.27;;
49834;SDS011;35729;52.090;13.162;2023-03-05T09:03:53;3.63;;;1.48;;
49834;SDS011;35729;52.090;13.162;2023-03-05T09:06:21;3.83;;;1.70;;
49834;SDS011;35729;52.090;13.162;2023-03-05T09:08:50;4.47;;;1.30;;
49834;SDS011;35729;52.090;13.162;2023-03-05T09:11:18;5.32;;;1.75;;
49834;SDS011;35729;52.090;13.162;2023-03-05T09:13:47;4.38;;;2.30;;
49834;SDS011;35729;52.090;13.162;2023-03-05T09:16:18;5.00;;;1.40;;
49834;SDS011;35729;52.090;13.162;2023-03-05T09:18:54;4.55;;;1.60;;
49834;SDS011;35729;52.090;13.162;2023-03-05T09:21:29;5.97;;;1.80;;
49834;SDS011;35729;52.090;13.162;2023-03-05T09:23:57;8.32;;;2.80;;
49834;SDS011;35729;52.090;13.162;2023-03-05T09:26:26;6.22;;;2.40;;
49834;SDS011;35729;52.090;13.162;2023-03-05T09:28:54;3.55;;;2.00;;
49834;SDS011;35729;52.090;13.162;2023-03-05T09:31:25;3.60;;;2.25;;
49834;SDS011;35729;52.090;13.162;2023-03-05T09:33:54;2.95;;;1.40;;
49834;SDS011;35729;52.090;13.162;2023-03-05T09:36:23;3.25;;;1.20;;
49834;SDS011;35729;52.090;13.162;2023-03-05T09:38:53;1.50;;;1.10;;
49834;SDS011;35729;52.090;13.162;2023-03-05T09:41:25;2.78;;;1.38;;
49834;SDS011;35729;52.090;13.162;2023-03-05T09:44:05;6.90;;;2.22;;
49834;SDS011;35729;52.090;13.162;2023-03-05T09:46:47;4.22;;;1.73;;
49834;SDS011;35729;52.090;13.162;2023-03-05T09:49:20;2.47;;;1.63;;
49834;SDS011;35729;52.090;13.162;2023-03-05T09:52:00;4.20;;;1.75;;
49834;SDS011;35729;52.090;13.162;2023-03-05T09:54:34;3.20;;;1.60;;
49834;SDS011;35729;52.090;13.162;2023-03-05T09:57:05;3.17;;;1.10;;
49834;SDS011;35729;52.090;13.162;2023-03-05T09:59:43;6.13;;;1.65;;
49834;SDS011;35729;52.090;13.162;2023-03-05T10:02:20;4.72;;;1.33;;
49834;SDS011;35729;52.090;13.162;2023-03-05T10:04:54;3.78;;;1.20;;
49834;SDS011;35729;52.090;13.162;2023-03-05T10:09:58;3.33;;;1.20;;
49834;SDS011;35729;52.090;13.162;2023-03-05T10:12:34;8.70;;;2.35;;
49834;SDS011;35729;52.090;13.162;2023-03-05T10:15:08;5.82;;;2.15;;
49834;SDS011;35729;52.090;13.162;2023-03-05T10:17:48;5.65;;;2.22;;
49834;SDS011;35729;52.090;13.162;2023-03-05T10:20:34;3.55;;;1.30;;
49834;SDS011;35729;52.090;13.162;2023-03-05T10:23:22;8.20;;;2.38;;
49834;SDS011;35729;52.090;13.162;2023-03-05T10:26:01;7.32;;;2.42;;
49834;SDS011;35729;52.090;13.162;2023-03-05T10:28:37;8.70;;;3.78;;
49834;SDS011;35729;52.090;13.162;2023-03-05T10:31:13;5.75;;;1.70;;
49834;SDS011;35729;52.090;13.162;2023-03-05T10:34:01;2.60;;;1.27;;
49834;SDS011;35729;52.090;13.162;2023-03-05T10:36:45;9.40;;;3.33;;
49834;SDS011;35729;52.090;13.162;2023-03-05T10:39:39;6.15;;;2.22;;
49834;SDS011;35729;52.090;13.162;2023-03-05T10:42:17;9.98;;;2.78;;
49834;SDS011;35729;52.090;13.162;2023-03-05T10:44:52;5.72;;;2.22;;
49834;SDS011;35729;52.090;13.162;2023-03-05T10:47:24;6.65;;;1.40;;
49834;SDS011;35729;52.090;13.162;2023-03-05T10:49:58;4.45;;;1.77;;
49834;SDS011;35729;52.090;13.162;2023-03-05T10:52:28;3.83;;;1.95;;
49834;SDS011;35729;52.090;13.162;2023-03-05T10:55:00;5.53;;;1.33;;
49834;SDS011;35729;52.090;13.162;2023-03-05T10:57:29;2.58;;;1.02;;
49834;SDS011;35729;52.090;13.162;2023-03-05T11:00:00;3.22;;;1.55;;
49834;SDS011;35729;52.090;13.162;2023-03-05T11:02:51;2.13;;;1.33;;
49834;SDS011;35729;52.090;13.162;2023-03-05T11:08:23;2.85;;;1.00;;
49834;SDS011;35729;52.090;13.162;2023-03-05T11:13:52;3.95;;;1.15;;
49834;SDS011;35729;52.090;13.162;2023-03-05T11:16:24;2.30;;;0.80;;
49834;SDS011;35729;52.090;13.162;2023-03-05T11:22:03;2.28;;;1.65;;
49834;SDS011;35729;52.090;13.162;2023-03-05T11:24:35;1.58;;;0.88;;
49834;SDS011;35729;52.090;13.162;2023-03-05T11:27:20;1.52;;;0.50;;
49834;SDS011;35729;52.090;13.162;2023-03-05T11:29:50;5.57;;;0.77;;
49834;SDS011;35729;52.090;13.162;2023-03-05T11:32:20;3.10;;;1.02;;
49834;SDS011;35729;52.090;13.162;2023-03-05T11:34:50;2.13;;;0.93;;
49834;SDS011;35729;52.090;13.162;2023-03-05T11:37:24;4.68;;;0.82;;
49834;SDS011;35729;52.090;13.162;2023-03-05T11:42:48;3.35;;;0.95;;
49834;SDS011;35729;52.090;13.162;2023-03-05T11:45:21;3.22;;;1.10;;
49834;SDS011;35729;52.090;13.162;2023-03-05T11:47:52;3.63;;;1.20;;
49834;SDS011;35729;52.090;13.162;2023-03-05T11:50:23;3.47;;;0.98;;
49834;SDS011;35729;52.090;13.162;2023-03-05T11:52:57;3.20;;;1.08;;
49834;SDS011;35729;52.090;13.162;2023-03-05T11:55:30;2.60;;;0.70;;
49834;SDS011;35729;52.090;13.162;2023-03-05T11:58:08;3.75;;;0.70;;
49834;SDS011;35729;52.090;13.162;2023-03-05T12:00:49;6.85;;;1.13;;
49834;SDS011;35729;52.090;13.162;2023-03-05T12:03:18;4.50;;;0.88;;
49834;SDS011;35729;52.090;13.162;2023-03-05T12:05:49;0.77;;;0.50;;
49834;SDS011;35729;52.090;13.162;2023-03-05T12:08:23;4.20;;;1.13;;
49834;SDS011;35729;52.090;13.162;2023-03-05T12:10:58;0.98;;;0.57;;
49834;SDS011;35729;52.090;13.162;2023-03-05T12:13:32;1.47;;;0.70;;
49834;SDS011;35729;52.090;13.162;2023-03-05T12:18:57;5.68;;;1.40;;
49834;SDS011;35729;52.090;13.162;2023-03-05T12:21:50;4.30;;;0.95;;
49834;SDS011;35729;52.090;13.162;2023-03-05T12:24:38;2.17;;;0.90;;
49834;SDS011;35729;52.090;13.162;2023-03-05T12:27:13;5.30;;;1.60;;
49834;SDS011;35729;52.090;13.162;2023-03-05T12:29:44;4.05;;;1.10;;
49834;SDS011;35729;52.090;13.162;2023-03-05T12:35:29;2.38;;;0.82;;
49834;SDS011;35729;52.090;13.162;2023-03-05T12:40:48;5.43;;;0.85;;
49834;SDS011;35729;52.090;13.162;2023-03-05T12:43:27;2.47;;;0.90;;
49834;SDS011;35729;52.090;13.162;2023-03-05T12:46:20;5.50;;;1.20;;
49834;SDS011;35729;52.090;13.162;2023-03-05T12:48:50;1.00;;;0.70;;
49834;SDS011;35729;52.090;13.162;2023-03-05T12:51:30;4.45;;;0.80;;
49834;SDS011;35729;52.090;13.162;2023-03-05T12:54:17;2.38;;;0.90;;
49834;SDS011;35729;52.090;13.162;2023-03-05T12:56:54;4.47;;;0.80;;
49834;SDS011;35729;52.090;13.162;2023-03-05T12:59:27;1.30;;;0.70;;
49834;SDS011;35729;52.090;13.162;2023-03-05T13:02:00;3.35;;;0.85;;
49834;SDS011;35729;52.090;13.162;2023-03-05T13:04:32;2.55;;;0.70;;
49834;SDS011;35729;52.090;13.162;2023-03-05T13:07:04;4.30;;;1.42;;
49834;SDS011;35729;52.090;13.162;2023-03-05T13:09:40;3.38;;;0.93;;
49834;SDS011;35729;52.090;13.162;2023-03-05T13:12:22;1.35;;;0.57;;
49834;SDS011;35729;52.090;13.162;2023-03-05T13:14:56;2.35;;;0.80;;
49834;SDS011;35729;52.090;13.162;2023-03-05T13:17:28;1.27;;;0.60;;
49834;SDS011;35729;52.090;13.162;2023-03-05T13:20:03;1.15;;;0.65;;
49834;SDS011;35729;52.090;13.162;2023-03-05T13:25:45;4.15;;;1.25;;
49834;SDS011;35729;52.090;13.162;2023-03-05T13:28:26;3.25;;;0.90;;
49834;SDS011;35729;52.090;13.162;2023-03-05T13:30:56;1.95;;;1.45;;
49834;SDS011;35729;52.090;13.162;2023-03-05T13:33:27;1.83;;;1.02;;
49834;SDS011;35729;52.090;13.162;2023-03-05T13:35:57;3.70;;;2.08;;
49834;SDS011;35729;52.090;13.162;2023-03-05T13:38:27;2.58;;;1.50;;
49834;SDS011;35729;52.090;13.162;2023-03-05T13:41:17;5.03;;;1.60;;
49834;SDS011;35729;52.090;13.162;2023-03-05T13:43:50;3.67;;;0.93;;
49834;SDS011;35729;52.090;13.162;2023-03-05T13:46:24;2.35;;;0.98;;
49834;SDS011;35729;52.090;13.162;2023-03-05T13:48:54;4.57;;;1.23;;
49834;SDS011;35729;52.090;13.162;2023-03-05T13:51:23;3.08;;;0.80;;
49834;SDS011;35729;52.090;13.162;2023-03-05T13:54:08;4.28;;;1.00;;
49834;SDS011;35729;52.090;13.162;2023-03-05T13:56:47;3.15;;;1.23;;
49834;SDS011;35729;52.090;13.162;2023-03-05T13:59:20;3.63;;;1.58;;
49834;SDS011;35729;52.090;13.162;2023-03-05T14:01:49;5.18;;;2.22;;
49834;SDS011;35729;52.090;13.162;2023-03-05T14:04:20;5.50;;;1.98;;
49834;SDS011;35729;52.090;13.162;2023-03-05T14:06:51;3.75;;;1.90;;
49834;SDS011;35729;52.090;13.162;2023-03-05T14:09:24;5.50;;;1.50;;
49834;SDS011;35729;52.090;13.162;2023-03-05T14:11:55;1.98;;;0.90;;
49834;SDS011;35729;52.090;13.162;2023-03-05T14:14:29;2.33;;;1.20;;
49834;SDS011;35729;52.090;13.162;2023-03-05T14:17:19;3.42;;;1.70;;
49834;SDS011;35729;52.090;13.162;2023-03-05T14:19:48;2.55;;;1.13;;
49834;SDS011;35729;52.090;13.162;2023-03-05T14:22:30;3.22;;;0.98;;
49834;SDS011;35729;52.090;13.162;2023-03-05T14:25:00;3.45;;;1.40;;
49834;SDS011;35729;52.090;13.162;2023-03-05T14:27:29;2.95;;;1.20;;
49834;SDS011;35729;52.090;13.162;2023-03-05T14:30:03;1.88;;;1.20;;
49834;SDS011;35729;52.090;13.162;2023-03-05T14:32:34;1.50;;;1.20;;
49834;SDS011;35729;52.090;13.162;2023-03-05T14:35:04;2.00;;;1.55;;
49834;SDS011;35729;52.090;13.162;2023-03-05T14:37:34;3.70;;;1.20;;
49834;SDS011;35729;52.090;13.162;2023-03-05T14:40:04;2.70;;;1.15;;
49834;SDS011;35729;52.090;13.162;2023-03-05T14:42:34;3.40;;;1.42;;
49834;SDS011;35729;52.090;13.162;2023-03-05T14:45:11;2.20;;;1.50;;
49834;SDS011;35729;52.090;13.162;2023-03-05T14:47:41;3.58;;;1.77;;
49834;SDS011;35729;52.090;13.162;2023-03-05T14:50:13;4.10;;;1.35;;
49834;SDS011;35729;52.090;13.162;2023-03-05T14:52:43;5.43;;;1.40;;
49834;SDS011;35729;52.090;13.162;2023-03-05T14:55:13;5.32;;;1.30;;
49834;SDS011;35729;52.090;13.162;2023-03-05T14:57:42;2.75;;;1.50;;
49834;SDS011;35729;52.090;13.162;2023-03-05T15:00:17;3.55;;;1.38;;
49834;SDS011;35729;52.090;13.162;2023-03-05T15:02:47;4.78;;;2.33;;
49834;SDS011;35729;52.090;13.162;2023-03-05T15:05:16;5.38;;;1.48;;
49834;SDS011;35729;52.090;13.162;2023-03-05T15:07:46;7.57;;;2.35;;
49834;SDS011;35729;52.090;13.162;2023-03-05T15:10:15;2.50;;;1.13;;
49834;SDS011;35729;52.090;13.162;2023-03-05T15:12:45;6.60;;;3.00;;
49834;SDS011;35729;52.090;13.162;2023-03-05T15:15:17;4.82;;;2.15;;
49834;SDS011;35729;52.090;13.162;2023-03-05T15:17:47;3.45;;;1.70;;
49834;SDS011;35729;52.090;13.162;2023-03-05T15:20:19;7.07;;;3.03;;
49834;SDS011;35729;52.090;13.162;2023-03-05T15:23:03;4.82;;;1.90;;
49834;SDS011;35729;52.090;13.162;2023-03-05T15:25:31;10.43;;;4.45;;